Time;durP1;ratioP1;P1;durP2;ratioP2;P2;SDS_P1;SDS_P2;PMS_P1;PMS_P2;Temp;Humidity;BMP_temperature;BMP_pressure;BME280_temperature;BME280_humidity;BME280_pressure;Samples;Min_cycle;Max_cycle;Signal;HPM_P1;HPM_P2
2022/11/07 00:02:56;;;;;;;;;4.25;4.00;;;;;15.93;80.65;100910.91;146619;570;46025;-68
2022/11/07 00:06:12;;;;;;;;;;;;;;;;;;;;;
2022/11/07 00:09:21;;;;;;;;;3.67;3.67;;;;;13.35;79.54;100452.34;146620;584;46016;-68
2022/11/07 00:12:21;;;;;;;;;3.00;3.00;;;;;16.02;79.96;100916.44;146621;630;46014;-68
2022/11/07 00:15:23;;;;;;;;;6.25;6.25;;;;;16.03;80.04;100923.44;146621;569;46012;-70
2022/11/07 00:18:21;;;;;;;;;4.25;3.00;;;;;16.04;79.92;100925.22;146622;581;46010;-70
2022/11/07 00:21:17;;;;;;;;;5.00;5.00;;;;;16.04;80.41;100922.59;146616;685;46016;-70
2022/11/07 00:24:20;;;;;;;;;5.25;5.00;;;;;16.05;79.83;100927.00;146622;622;46010;-71
2022/11/07 00:27:16;;;;;;;;;4.00;4.00;;;;;16.04;80.13;100925.22;146621;571;46012;-71
2022/11/07 00:30:11;;;;;;;;;7.00;5.50;;;;;16.03;80.16;100922.56;146617;656;46032;-71
2022/11/07 00:33:18;;;;;;;;;10.00;8.00;;;;;16.02;80.02;100912.94;146618;669;46017;-70
2022/11/07 00:36:37;;;;;;;;;4.00;4.00;;;;;16.03;79.51;100917.31;146623;574;46010;-71
2022/11/07 00:39:32;;;;;;;;;2.00;1.00;;;;;16.06;81.22;100922.66;146621;609;46013;-70
2022/11/07 00:42:27;;;;;;;;;1.33;1.33;;;;;16.05;80.66;100919.16;146623;593;46020;-70
2022/11/07 00:45:31;;;;;;;;;4.00;2.67;;;;;16.03;80.42;100915.59;146618;576;46016;-69
2022/11/07 00:48:28;;;;;;;;;3.33;1.33;;;;;16.00;81.54;100925.06;146622;597;46021;-70
2022/11/07 00:51:30;;;;;;;;;5.00;3.00;;;;;15.92;82.09;100911.78;146618;576;46016;-70
2022/11/07 00:54:34;;;;;;;;;1.00;1.00;;;;;15.82;82.03;100902.72;146622;570;46021;-70
2022/11/07 00:57:32;;;;;;;;;4.50;3.75;;;;;15.76;80.98;100910.34;146615;706;46016;-70
2022/11/07 01:00:28;;;;;;;;;3.75;3.25;;;;;15.77;82.22;100911.25;146621;606;46020;-70
2022/11/07 01:06:53;;;;;;;;;;;;;;;;;;;;;
2022/11/07 01:09:51;;;;;;;;;1.00;1.00;;;;;15.81;80.99;100931.44;146620;567;46016;-68
2022/11/07 01:13:07;;;;;;;;;4.25;3.00;;;;;13.08;79.99;100460.91;146621;718;46020;-68
2022/11/07 01:16:15;;;;;;;;;4.25;3.75;;;;;15.83;80.50;100935.88;146618;660;46014;-68
2022/11/07 01:19:12;;;;;;;;;3.00;3.00;;;;;15.84;81.12;100932.41;146621;682;46010;-69
2022/11/07 01:22:06;;;;;;;;;2.75;2.75;;;;;15.86;80.83;100932.47;146618;605;46012;-68
2022/11/07 01:25:12;;;;;;;;;;;;;;;;;;;;;
2022/11/07 01:28:16;;;;;;;;;4.00;3.00;;;;;15.91;80.71;100931.78;146615;639;46016;-68
2022/11/07 01:31:30;;;;;;;;;3.25;2.50;;;;;15.93;79.78;100937.94;146621;624;46021;-67
2022/11/07 01:34:23;;;;;;;;;5.00;3.00;;;;;15.96;81.93;100949.37;146616;671;46016;-67
2022/11/07 01:37:27;;;;;;;;;3.00;3.00;;;;;15.92;80.93;100951.00;146621;662;46020;-70
2022/11/07 01:40:40;;;;;;;;;;;;;;;;;;;;;
2022/11/07 01:44:13;;;;;;;;;3.75;3.75;;;;;15.86;79.34;100940.31;146622;565;46020;-68
2022/11/07 01:47:16;;;;;;;;;2.00;1.33;;;;;15.90;80.14;100939.59;146621;587;46013;-68
2022/11/07 01:50:20;;;;;;;;;1.00;1.00;;;;;15.96;80.45;100941.50;146623;587;46020;-67
2022/11/07 01:53:03;;;;;;;;;3.00;3.00;;;;;15.95;84.41;100940.62;146713;569;45048;-68
2022/11/07 01:56:01;;;;;;;;;4.67;2.00;;;;;15.95;81.35;100945.87;146628;634;46012;-67
2022/11/07 01:59:05;;;;;;;;;4.00;1.67;;;;;15.97;80.13;100946.78;146631;618;46020;-67
2022/11/07 02:02:23;;;;;;;;;3.25;3.00;;;;;15.91;79.58;100941.34;146626;680;46012;-66
2022/11/07 02:05:32;;;;;;;;;3.00;2.50;;;;;15.99;79.84;100952.06;146630;643;47012;-66
2022/11/07 02:08:30;;;;;;;;;4.00;4.00;;;;;16.00;80.69;100961.69;146626;627;47014;-67
2022/11/07 02:11:33;;;;;;;;;4.00;3.67;;;;;15.92;80.31;100957.09;146630;570;46020;-66
2022/11/07 02:14:26;;;;;;;;;4.67;3.00;;;;;15.88;80.61;100954.31;146626;615;46016;-66
2022/11/07 02:17:44;;;;;;;;;2.67;2.67;;;;;15.79;81.21;100951.41;146631;569;46010;-67
2022/11/07 02:20:40;;;;;;;;;3.25;3.00;;;;;15.78;80.91;100974.03;146624;570;46016;-66
2022/11/07 02:24:11;;;;;;;;;3.75;3.00;;;;;15.74;80.66;100963.44;146628;622;46021;-68
2022/11/07 02:27:10;;;;;;;;;5.67;4.00;;;;;15.80;81.00;100972.37;146624;563;46016;-68
2022/11/07 02:30:23;;;;;;;;;2.75;2.75;;;;;15.82;81.77;100969.81;146629;649;45021;-72
2022/11/07 02:33:26;;;;;;;;;3.00;3.00;;;;;15.83;82.97;100963.75;146626;618;45016;-70
2022/11/07 02:36:35;;;;;;;;;5.00;3.33;;;;;15.86;82.80;100966.47;146630;626;46010;-72
2022/11/07 02:39:39;;;;;;;;;2.00;2.00;;;;;15.90;82.13;100977.06;146624;635;46016;-74
2022/11/07 02:42:48;;;;;;;;;3.00;3.00;;;;;15.94;82.97;100988.53;146629;574;45020;-70
2022/11/07 02:45:48;;;;;;;;;1.67;1.33;;;;;15.90;83.01;100986.66;146626;633;46014;-67
2022/11/07 02:48:59;;;;;;;;;4.00;4.00;;;;;15.82;82.07;100983.75;146629;569;46010;-69
2022/11/07 02:52:00;;;;;;;;;3.50;3.00;;;;;15.74;82.80;100985.25;146624;688;46033;-68
2022/11/07 02:55:14;;;;;;;;;;;;;;;;;;;;;
2022/11/07 02:58:08;;;;;;;;;3.00;3.00;;;;;15.69;84.78;100976.34;146626;596;46012;-66
2022/11/07 03:01:18;;;;;;;;;;;;;;;;;;;;;
2022/11/07 03:04:25;;;;;;;;;4.00;4.00;;;;;15.69;83.17;100978.97;146624;563;46016;-69
2022/11/07 03:07:23;;;;;;;;;4.50;4.25;;;;;15.67;83.54;100991.09;146631;658;46011;-69
2022/11/07 03:10:26;;;;;;;;;2.00;2.00;;;;;15.65;82.02;100987.50;146625;710;47012;-70
2022/11/07 03:13:38;;;;;;;;;6.00;4.00;;;;;15.63;81.93;100990.03;146629;569;45020;-70
2022/11/07 03:16:41;;;;;;;;;6.25;5.25;;;;;15.61;83.25;100983.00;146625;596;46032;-70
2022/11/07 03:19:39;;;;;;;;;4.50;3.00;;;;;15.57;82.37;100974.16;146630;674;46020;-70
2022/11/07 03:22:40;;;;;;;;;5.50;3.25;;;;;15.59;82.58;100977.72;146624;625;46016;-70
2022/11/07 03:25:38;;;;;;;;;3.25;3.25;;;;;15.63;82.82;100979.59;146628;723;46020;-69
2022/11/07 03:28:33;;;;;;;;;5.00;4.00;;;;;15.67;82.13;100986.75;146624;722;46016;-69
2022/11/07 03:31:42;;;;;;;;;4.75;4.75;;;;;15.66;82.02;100992.78;146628;621;46021;-68
2022/11/07 03:34:38;;;;;;;;;4.75;3.00;;;;;15.67;82.19;100997.22;146625;694;46012;-70
2022/11/07 03:37:41;;;;;;;;;2.00;2.00;;;;;15.63;81.31;100995.28;146627;575;46021;-69
2022/11/07 03:40:43;;;;;;;;;4.75;4.00;;;;;15.60;82.40;100991.66;146624;595;46012;-70
2022/11/07 03:43:49;;;;;;;;;;;;;;;;;;;;;
2022/11/07 03:47:09;;;;;;;;;5.25;4.75;;;;;15.63;81.87;100999.63;146620;571;45942;-71
2022/11/07 03:50:05;;;;;;;;;4.75;3.75;;;;;15.68;82.37;101009.44;146627;571;46020;-68
2022/11/07 03:53:14;;;;;;;;;5.00;4.00;;;;;15.65;81.88;101013.66;146623;681;46918;-67
2022/11/07 03:56:32;;;;;;;;;9.75;9.75;;;;;15.63;80.96;100997.88;146630;564;46010;-68
2022/11/07 03:59:34;;;;;;;;;10.50;8.50;;;;;15.68;82.04;101014.66;146624;691;46013;-68
2022/11/07 04:02:32;;;;;;;;;6.00;6.00;;;;;15.68;81.13;101013.78;146629;638;46010;-69
2022/11/07 04:05:36;;;;;;;;;4.75;4.00;;;;;15.68;83.31;101019.00;146626;637;46016;-68
2022/11/07 04:08:29;;;;;;;;;2.50;2.50;;;;;15.62;81.62;101024.88;146628;579;46020;-69
2022/11/07 04:18:10;;;;;;;;;5.75;5.00;;;;;15.66;82.44;101031.97;146624;565;46012;-69
2022/11/07 04:21:15;;;;;;;;;6.25;5.75;;;;;15.64;81.33;101040.63;146630;590;46010;-68
2022/11/07 04:24:16;;;;;;;;;8.25;6.00;;;;;15.65;81.89;101047.63;146621;693;46016;-69
2022/11/07 04:30:33;;;;;;;;;6.00;5.00;;;;;15.71;81.73;101058.34;146623;668;46016;-69
2022/11/07 04:33:38;;;;;;;;;6.75;4.50;;;;;15.71;81.95;101060.94;146628;604;46020;-69
2022/11/07 04:36:35;;;;;;;;;5.00;4.00;;;;;15.67;82.98;101059.97;146627;564;46030;-70
2022/11/07 04:39:39;;;;;;;;;5.75;5.75;;;;;15.58;82.85;101070.06;146630;650;46010;-70
2022/11/07 04:42:49;;;;;;;;;8.00;4.75;;;;;15.52;81.79;101075.06;146624;579;46013;-71
2022/11/07 04:45:51;;;;;;;;;8.50;7.50;;;;;15.54;81.84;101077.69;146628;637;46012;-69
2022/11/07 04:48:46;;;;;;;;;9.25;7.00;;;;;15.56;81.62;101079.53;146623;590;46016;-73
2022/11/07 04:51:58;;;;;;;;;10.25;9.25;;;;;15.57;83.03;101078.69;146625;601;46021;-69
2022/11/07 04:55:00;;;;;;;;;9.75;9.00;;;;;13.42;82.63;100721.72;146617;673;46016;-69
2022/11/07 04:58:04;;;;;;;;;;;;;;;;;;;;;
2022/11/07 05:01:06;;;;;;;;;10.25;10.25;;;;;15.67;81.43;101095.69;146612;572;47919;-70
2022/11/07 05:04:01;;;;;;;;;11.00;10.00;;;;;15.69;81.88;101089.62;146612;688;46020;-71
2022/11/07 05:07:06;;;;;;;;;12.25;10.75;;;;;15.72;81.38;101094.09;146611;605;46012;-71
2022/11/07 05:10:02;;;;;;;;;10.75;9.75;;;;;15.75;81.02;101098.56;146612;614;46020;-71
2022/11/07 05:13:10;;;;;;;;;10.00;10.00;;;;;15.77;81.40;101102.13;146617;613;46017;-70
2022/11/07 05:16:06;;;;;;;;;11.00;10.75;;;;;15.73;82.70;101110.66;146614;579;46020;-71
2022/11/07 05:19:01;;;;;;;;;16.00;13.75;;;;;15.66;81.39;101114.75;146605;573;47012;-67
2022/11/07 05:25:27;;;;;;;;;;;;;;;;;;;;;
2022/11/07 05:28:38;;;;;;;;;11.75;10.75;;;;;14.41;80.85;100910.69;146619;616;46023;-69
2022/11/07 05:31:45;;;;;;;;;11.50;9.00;;;;;15.68;81.39;101121.84;146609;627;47016;-69
2022/11/07 05:34:43;;;;;;;;;13.50;12.50;;;;;15.70;83.12;101125.44;146623;586;46011;-71
2022/11/07 05:37:57;;;;;;;;;;;;;;;;;;;;;
2022/11/07 05:40:52;;;;;;;;;14.50;12.75;;;;;15.67;82.49;101119.19;146608;650;47010;-71
2022/11/07 05:44:02;;;;;;;;;15.00;13.75;;;;;15.70;82.13;101120.19;146612;676;46012;-70
2022/11/07 05:46:56;;;;;;;;;14.75;13.75;;;;;15.77;82.03;101125.66;146609;572;46010;-70
2022/11/07 05:49:52;;;;;;;;;19.75;17.00;;;;;15.84;81.91;101136.38;146612;587;46012;-70
2022/11/07 05:52:54;;;;;;;;;16.00;14.25;;;;;15.91;81.76;101140.09;146617;564;46020;-68
2022/11/07 05:55:49;;;;;;;;;18.75;16.50;;;;;15.97;82.23;101152.50;146618;569;46016;-68
2022/11/07 05:58:49;;;;;;;;;13.75;12.75;;;;;15.99;81.60;101150.84;146622;604;46020;-69
2022/11/07 06:01:45;;;;;;;;;15.00;14.00;;;;;15.98;81.68;101155.19;146618;707;46012;-68
2022/11/07 06:04:42;;;;;;;;;16.75;16.00;;;;;15.94;81.09;101153.28;146620;590;46013;-70
2022/11/07 06:07:42;;;;;;;;;16.00;14.25;;;;;15.94;81.74;101153.28;146619;703;46014;-67
2022/11/07 06:10:35;;;;;;;;;17.25;14.75;;;;;15.95;82.18;101165.56;146621;610;46020;-66
2022/11/07 06:13:27;;;;;;;;;13.50;12.75;;;;;15.93;81.49;101165.47;146616;739;46016;-68
2022/11/07 06:16:19;;;;;;;;;17.00;13.50;;;;;15.92;81.75;101161.09;146623;588;46010;-70
2022/11/07 06:19:19;;;;;;;;;16.75;15.25;;;;;15.91;81.81;101174.97;146614;578;46016;-69
2022/11/07 06:22:15;;;;;;;;;14.50;13.50;;;;;15.86;81.93;101180.91;146619;592;46020;-69
2022/11/07 06:25:07;;;;;;;;;14.25;14.25;;;;;15.84;83.07;101183.44;146618;577;46012;-69
2022/11/07 06:28:09;;;;;;;;;13.50;12.50;;;;;15.85;82.09;101185.22;146617;610;46021;-69
2022/11/07 06:31:09;;;;;;;;;13.75;12.50;;;;;15.86;81.77;101189.63;146619;566;46014;-68
2022/11/07 06:34:10;;;;;;;;;11.25;10.00;;;;;15.93;80.75;101198.59;146619;682;46010;-69
2022/11/07 06:37:25;;;;;;;;;11.00;10.75;;;;;15.97;80.28;101205.72;146618;632;46016;-67
2022/11/07 06:40:31;;;;;;;;;11.50;11.00;;;;;15.91;80.92;101195.03;146615;680;46010;-67
2022/11/07 06:43:23;;;;;;;;;12.25;12.00;;;;;16.03;81.81;101210.28;146617;569;46032;-68
2022/11/07 06:46:28;;;;;;;;;14.25;12.25;;;;;16.03;80.58;101211.16;146618;614;46020;-67
2022/11/07 06:49:23;;;;;;;;;13.25;11.75;;;;;16.10;81.14;101207.03;146617;638;46013;-68
2022/11/07 06:52:33;;;;;;;;;13.00;11.25;;;;;14.99;79.48;100999.06;146621;683;46010;-68
2022/11/07 06:55:37;;;;;;;;;14.25;10.75;;;;;16.33;80.28;101220.97;146607;590;46016;-70
2022/11/07 06:58:39;;;;;;;;;14.50;12.50;;;;;16.45;80.21;101233.59;146610;588;46021;-70
2022/11/07 07:01:33;;;;;;;;;14.00;12.25;;;;;16.56;81.21;101232.25;146609;577;46016;-68
2022/11/07 07:04:31;;;;;;;;;15.50;13.75;;;;;16.60;80.16;101232.41;146614;575;46021;-71
2022/11/07 07:07:29;;;;;;;;;11.00;10.25;;;;;16.70;80.10;101227.47;146611;593;46012;-70
2022/11/07 07:10:26;;;;;;;;;15.25;12.50;;;;;16.39;79.96;101145.28;146606;590;46021;-69
2022/11/07 07:13:33;;;;;;;;;12.00;11.25;;;;;17.08;79.60;101218.34;146605;574;46918;-70
2022/11/07 07:16:29;;;;;;;;;13.50;12.00;;;;;17.44;78.32;101236.94;146615;623;46020;-69
2022/11/07 07:19:26;;;;;;;;;12.75;11.25;;;;;17.75;77.38;101236.16;146608;569;46918;-69
2022/11/07 07:22:27;;;;;;;;;15.25;12.25;;;;;17.95;75.30;101243.78;146615;555;46020;-69
2022/11/07 07:25:32;;;;;;;;;14.00;12.50;;;;;18.01;74.58;101243.97;146613;570;46016;-69
2022/11/07 07:28:36;;;;;;;;;13.75;13.75;;;;;17.98;74.06;101242.12;146614;665;46020;-69
2022/11/07 07:31:53;;;;;;;;;16.25;15.00;;;;;16.72;73.68;101040.78;146611;637;46016;-69
2022/11/07 07:34:48;;;;;;;;;15.00;14.00;;;;;17.78;74.87;101248.50;146617;582;46010;-69
2022/11/07 07:37:47;;;;;;;;;14.00;12.00;;;;;17.69;74.73;101256.94;146610;569;46024;-69
2022/11/07 07:40:53;;;;;;;;;15.00;15.00;;;;;17.63;75.03;101250.63;146608;564;46020;-69
2022/11/07 07:44:21;;;;;;;;;;;;;;;;;;;;;
2022/11/07 07:47:21;;;;;;;;;10.00;10.00;;;;;17.52;75.90;101264.31;146615;586;46020;-69
2022/11/07 07:50:16;;;;;;;;;15.25;13.00;;;;;17.54;76.58;101253.87;146610;599;46918;-68
2022/11/07 07:53:08;;;;;;;;;18.75;16.75;;;;;17.57;77.53;101264.47;146613;626;46020;-68
2022/11/07 07:56:24;;;;;;;;;;;;;;;;;;;;;
2022/11/07 07:59:07;;;;;;;;;15.25;14.25;;;;;17.53;77.42;101267.81;146703;566;46023;-68
2022/11/07 08:02:10;;;;;;;;;15.50;12.00;;;;;17.57;77.37;101269.72;146616;573;46012;-68
2022/11/07 08:05:08;;;;;;;;;14.25;12.50;;;;;17.63;78.19;101269.00;146621;574;46020;-68
2022/11/07 08:08:09;;;;;;;;;11.00;11.00;;;;;17.72;77.90;101269.28;146617;579;46012;-68
2022/11/07 08:11:08;;;;;;;;;14.00;12.00;;;;;17.82;78.02;101270.47;146616;699;47010;-69
2022/11/07 08:14:13;;;;;;;;;15.00;12.00;;;;;17.89;76.82;101273.34;146619;583;46012;-69
2022/11/07 08:17:11;;;;;;;;;14.75;12.75;;;;;17.96;79.10;101267.44;146621;564;46020;-67
2022/11/07 08:20:14;;;;;;;;;17.50;15.00;;;;;18.10;77.11;101266.94;146616;590;46016;-69
2022/11/07 08:23:15;;;;;;;;;15.75;15.75;;;;;18.34;75.98;101272.91;146623;581;45021;-70
2022/11/07 08:26:16;;;;;;;;;51.25;41.25;;;;;18.49;74.95;101276.81;146618;589;46016;-69
2022/11/07 08:29:11;;;;;;;;;56.50;44.50;;;;;18.51;74.58;101280.38;146619;596;46021;-69
2022/11/07 08:32:12;;;;;;;;;43.00;31.75;;;;;18.63;76.05;101272.84;146613;563;46012;-69
2022/11/07 08:35:04;;;;;;;;;21.00;19.75;;;;;19.02;73.92;101280.00;146620;625;46021;-69
2022/11/07 08:38:03;;;;;;;;;19.25;17.25;;;;;19.47;73.73;101282.00;146616;635;46014;-70
2022/11/07 08:41:05;;;;;;;;;29.25;26.00;;;;;19.95;73.75;101276.12;146619;588;46020;-68
2022/11/07 08:44:12;;;;;;;;;20.00;18.75;;;;;20.52;71.43;101288.72;146617;683;46033;-69
2022/11/07 08:47:11;;;;;;;;;27.50;23.75;;;;;20.92;68.95;101295.63;146619;570;46020;-71
2022/11/07 08:50:23;;;;;;;;;29.50;24.00;;;;;21.32;70.09;101292.81;146617;581;46016;-69
2022/11/07 08:53:21;;;;;;;;;25.00;20.00;;;;;21.63;64.23;101297.72;146618;706;46020;-69
2022/11/07 08:56:21;;;;;;;;;20.00;18.25;;;;;21.74;65.91;101305.78;146613;589;46016;-71
2022/11/07 08:59:15;;;;;;;;;25.25;21.00;;;;;21.70;64.54;101305.72;146621;573;46010;-70
2022/11/07 09:02:26;;;;;;;;;27.00;26.00;;;;;21.48;64.48;101313.31;146613;604;46016;-70
2022/11/07 09:05:23;;;;;;;;;29.75;24.25;;;;;21.21;65.41;101305.78;146617;618;46020;-69
2022/11/07 09:08:22;;;;;;;;;22.50;21.00;;;;;21.16;66.31;101304.84;146611;594;46016;-69
2022/11/07 09:11:23;;;;;;;;;19.00;15.75;;;;;21.25;64.48;101304.13;146621;569;46010;-69
2022/11/07 09:14:30;;;;;;;;;15.50;12.50;;;;;21.21;63.85;101316.34;146619;666;46012;-71
2022/11/07 09:17:38;;;;;;;;;17.50;16.75;;;;;20.99;65.38;101312.44;146612;596;46916;-70
2022/11/07 09:20:37;;;;;;;;;18.50;16.50;;;;;20.82;65.86;101309.50;146619;640;46013;-69
2022/11/07 09:23:47;;;;;;;;;18.25;17.50;;;;;20.69;66.37;101311.03;146619;600;46020;-70
2022/11/07 09:26:53;;;;;;;;;18.50;17.75;;;;;19.33;66.10;101102.88;146617;583;46016;-70
2022/11/07 09:29:46;;;;;;;;;26.50;24.50;;;;;20.27;67.41;101301.37;146619;593;46021;-70
2022/11/07 09:32:50;;;;;;;;;33.50;28.00;;;;;20.05;68.63;101302.66;146612;569;46016;-73
2022/11/07 09:35:47;;;;;;;;;30.75;26.50;;;;;19.89;69.90;101299.66;146607;596;46011;-72
2022/11/07 09:38:55;;;;;;;;;23.25;21.75;;;;;19.82;70.88;101293.38;146612;609;46012;-73
2022/11/07 09:42:15;;;;;;;;;21.50;18.75;;;;;19.84;69.85;101283.75;146620;612;46013;-73
2022/11/07 09:45:27;;;;;;;;;21.00;18.75;;;;;19.87;70.02;101285.56;146618;565;46012;-70
2022/11/07 09:48:29;;;;;;;;;30.50;27.00;;;;;19.92;69.80;101283.94;146619;573;46012;-69
2022/11/07 09:51:48;;;;;;;;;30.50;26.75;;;;;18.04;70.02;100920.38;146612;592;46014;-70
2022/11/07 09:54:49;;;;;;;;;31.75;24.25;;;;;20.40;69.86;101277.91;146615;584;46012;-71
2022/11/07 09:57:46;;;;;;;;;24.00;21.50;;;;;20.75;69.83;101268.97;146612;579;46016;-70
2022/11/07 10:00:40;;;;;;;;;22.00;20.50;;;;;21.17;68.38;101273.22;146620;641;46010;-68
2022/11/07 10:03:35;;;;;;;;;26.25;22.50;;;;;21.53;66.00;101269.44;146613;618;46016;-70
2022/11/07 10:06:48;;;;;;;;;22.25;17.75;;;;;21.86;64.80;101268.13;146617;583;45021;-73
2022/11/07 10:10:06;;;;;;;;;25.50;24.75;;;;;20.90;64.77;101069.75;146613;597;47016;-75
2022/11/07 10:13:42;;;;;;;;;26.50;21.50;;;;;20.94;64.12;101054.03;146615;630;46021;-70
2022/11/07 10:17:21;;;;;;;;;29.50;24.00;;;;;22.11;61.73;101254.37;146613;578;46016;-77
2022/11/07 10:20:55;;;;;;;;;27.50;25.25;;;;;22.01;62.86;101263.06;146613;628;46021;-76
2022/11/07 10:24:45;;;;;;;;;;;;;;;;;;;;;
2022/11/07 10:27:53;;;;;;;;;;;;;;;;;;;;;
2022/11/07 10:31:12;;;;;;;;;15.75;15.75;;;;;21.87;60.71;101257.59;146616;629;46914;-74
2022/11/07 10:34:19;;;;;;;;;15.75;15.25;;;;;21.98;61.61;101263.00;146617;702;46013;-75
2022/11/07 10:37:22;;;;;;;;;14.50;12.25;;;;;22.11;61.35;101257.00;146614;657;46012;-73
2022/11/07 10:40:30;;;;;;;;;12.33;12.00;;;;;22.17;63.13;101256.25;146615;623;46020;-73
2022/11/07 10:43:54;;;;;;;;;;;;;;;;;;;;;
2022/11/07 10:47:07;;;;;;;;;12.00;10.67;;;;;22.22;60.10;101262.47;146614;622;47020;-74
2022/11/07 10:50:07;;;;;;;;;14.00;13.67;;;;;22.08;58.17;101254.34;146616;586;46016;-74
2022/11/07 10:53:24;;;;;;;;;13.33;12.33;;;;;21.89;59.72;101253.22;146619;566;46020;-74
2022/11/07 10:56:20;;;;;;;;;11.33;11.33;;;;;21.64;60.98;101251.09;146612;652;46916;-75
2022/11/07 10:59:37;;;;;;;;;14.00;13.00;;;;;21.51;63.49;101247.41;146623;638;46010;-76
2022/11/07 11:02:49;;;;;;;;;13.00;12.25;;;;;21.55;61.68;101258.88;146616;670;46012;-73
2022/11/07 11:06:08;;;;;;;;;;;;;;;;;;;;;
2022/11/07 11:09:15;;;;;;;;;14.75;14.75;;;;;21.41;60.43;101254.28;146617;569;46016;-74
2022/11/07 11:12:20;;;;;;;;;16.25;13.00;;;;;21.41;62.10;101249.03;146621;631;46011;-75
2022/11/07 11:15:26;;;;;;;;;16.67;13.00;;;;;21.56;61.03;101253.66;146617;664;46915;-75
2022/11/07 11:18:23;;;;;;;;;15.33;13.33;;;;;21.72;59.60;101240.66;146618;584;46020;-75
2022/11/07 11:21:15;;;;;;;;;13.75;13.50;;;;;21.80;57.81;101242.53;146617;697;46016;-74
2022/11/07 11:24:40;;;;;;;;;13.25;11.50;;;;;21.86;59.10;101237.31;146619;597;46020;-74
2022/11/07 11:27:55;;;;;;;;;16.25;15.75;;;;;21.96;60.71;101235.69;146616;643;46013;-74
2022/11/07 11:31:15;;;;;;;;;14.75;12.25;;;;;22.23;61.53;101242.22;146620;698;46020;-75
2022/11/07 11:34:33;;;;;;;;;12.33;10.67;;;;;20.51;59.61;100890.06;146614;596;46024;-75
2022/11/07 11:37:42;;;;;;;;;12.00;12.00;;;;;22.67;60.18;101244.47;146620;583;46020;-72
2022/11/07 11:40:44;;;;;;;;;14.67;13.00;;;;;22.79;60.87;101234.88;146617;672;46012;-75
2022/11/07 11:43:49;;;;;;;;;12.67;12.67;;;;;22.93;57.28;101232.38;146618;571;46021;-75
2022/11/07 11:47:28;;;;;;;;;13.25;13.25;;;;;23.01;60.75;101229.81;146615;622;46016;-73
2022/11/07 11:50:42;;;;;;;;;17.50;15.75;;;;;23.05;58.80;101226.31;146620;620;46010;-75
2022/11/07 11:53:38;;;;;;;;;15.75;12.00;;;;;21.98;54.80;101056.19;146618;585;46012;-75
2022/11/07 11:57:03;;;;;;;;;13.00;12.50;;;;;22.71;55.19;101233.94;146619;598;46020;-74
2022/11/07 12:00:27;;;;;;;;;14.00;14.00;;;;;22.44;55.69;101231.91;146618;680;46014;-74
2022/11/07 12:04:07;;;;;;;;;16.25;16.25;;;;;21.03;54.99;101037.47;146620;572;46013;-75
2022/11/07 12:07:44;;;;;;;;;14.50;13.00;;;;;20.80;58.90;101026.59;146614;580;46012;-74
2022/11/07 12:49:39;;;;;;;;;16.00;14.00;;;;;23.27;58.45;101217.69;146621;567;46012;-75
2022/11/07 12:53:25;;;;;;;;;19.50;15.50;;;;;22.31;58.40;101016.91;146615;689;46016;-75
2022/11/07 12:56:40;;;;;;;;;19.00;19.00;;;;;23.48;56.06;101216.03;146622;706;46012;-75
2022/11/07 12:59:39;;;;;;;;;21.00;17.25;;;;;23.44;54.29;101225.72;146614;609;46915;-76
2022/11/07 13:03:30;;;;;;;;;18.25;17.00;;;;;22.07;53.62;101022.81;146623;571;46021;-73
2022/11/07 13:07:06;;;;;;;;;15.50;15.25;;;;;22.22;57.72;101066.12;146620;634;46012;-76
2022/11/07 13:10:18;;;;;;;;;17.00;17.00;;;;;23.11;54.89;101231.66;146623;645;46010;-74
2022/11/07 13:13:35;;;;;;;;;20.00;16.00;;;;;23.01;57.81;101232.47;146615;609;46016;-74
2022/11/07 13:16:46;;;;;;;;;21.00;18.00;;;;;23.02;57.32;101232.50;146623;623;46010;-75
2022/11/07 13:20:27;;;;;;;;;18.00;18.00;;;;;20.82;57.83;100881.66;146614;589;46016;-75
2022/11/07 13:23:20;;;;;;;;;19.75;18.75;;;;;22.64;56.60;101239.12;146620;579;46020;-74
2022/11/07 13:26:15;;;;;;;;;17.00;15.50;;;;;21.49;57.37;101061.78;146612;664;46017;-74
2022/11/07 13:29:40;;;;;;;;;20.00;18.50;;;;;21.52;56.10;101068.88;146619;563;46020;-74
2022/11/07 13:32:48;;;;;;;;;23.00;20.00;;;;;22.57;58.84;101240.84;146616;599;46012;-74
2022/11/07 13:35:46;;;;;;;;;17.00;14.25;;;;;22.66;54.18;101242.69;146617;564;46020;-72
2022/11/07 13:38:49;;;;;;;;;18.25;17.75;;;;;22.60;55.87;101231.19;146613;657;46016;-74
2022/11/07 13:41:45;;;;;;;;;22.50;21.00;;;;;22.69;56.40;101237.44;146619;569;46021;-72
2022/11/07 13:44:42;;;;;;;;;20.75;16.75;;;;;21.65;56.38;101058.50;146613;609;46016;-72
2022/11/07 13:47:45;;;;;;;;;20.25;18.50;;;;;22.67;56.37;101233.87;146619;597;46021;-73
2022/11/07 13:51:07;;;;;;;;;17.50;17.50;;;;;22.59;57.32;101236.47;146614;570;46012;-73
2022/11/07 13:54:51;;;;;;;;;21.25;17.75;;;;;22.46;56.91;101246.03;146616;614;46020;-72
2022/11/07 13:58:23;;;;;;;;;22.00;21.75;;;;;22.23;56.96;101239.59;146611;627;46913;-73
2022/11/07 14:01:23;;;;;;;;;20.75;18.75;;;;;22.02;57.43;101248.97;146615;563;46014;-73
2022/11/07 14:04:32;;;;;;;;;19.50;17.00;;;;;21.87;58.87;101254.97;146611;631;46012;-73
2022/11/07 14:07:36;;;;;;;;;22.50;19.75;;;;;21.71;59.17;101258.22;146615;599;46010;-73
2022/11/07 14:11:11;;;;;;;;;22.25;18.00;;;;;20.32;59.47;101034.59;146608;583;47916;-74
2022/11/07 14:14:11;;;;;;;;;18.50;18.50;;;;;21.41;58.63;101263.97;146617;628;46022;-73
2022/11/07 14:17:31;;;;;;;;;21.00;19.00;;;;;21.26;59.02;101250.50;146611;608;46013;-73
2022/11/07 14:20:26;;;;;;;;;18.75;18.75;;;;;21.08;59.73;101249.31;146619;592;46020;-73
2022/11/07 14:23:24;;;;;;;;;19.75;16.50;;;;;20.95;60.36;101253.50;146613;592;46036;-73
2022/11/07 14:26:51;;;;;;;;;21.50;20.00;;;;;19.52;61.03;101035.75;146620;590;46020;-72
2022/11/07 14:30:08;;;;;;;;;20.25;20.25;;;;;19.35;60.63;101032.81;146613;571;46017;-74
2022/11/07 14:33:06;;;;;;;;;23.25;20.75;;;;;20.55;59.95;101256.28;146615;588;46014;-72
2022/11/07 14:35:59;;;;;;;;;20.00;17.25;;;;;20.47;60.17;101253.50;146613;664;46012;-75
2022/11/07 14:39:14;;;;;;;;;22.50;20.75;;;;;20.41;60.09;101259.53;146616;602;46028;-73
2022/11/07 14:42:16;;;;;;;;;22.00;22.00;;;;;20.35;60.81;101255.88;146612;608;46012;-74
2022/11/07 14:45:18;;;;;;;;;23.00;20.00;;;;;20.28;60.69;101252.25;146615;569;46037;-71
2022/11/07 14:48:34;;;;;;;;;;;;;;;;;;;;;
2022/11/07 14:51:43;;;;;;;;;24.00;22.00;;;;;20.17;62.17;101259.03;146615;585;46020;-72
2022/11/07 14:54:43;;;;;;;;;25.50;23.50;;;;;20.14;62.46;101254.59;146610;590;46013;-72
2022/11/07 14:57:49;;;;;;;;;28.25;26.00;;;;;20.07;62.52;101252.69;146615;622;46010;-73
2022/11/07 15:00:54;;;;;;;;;30.25;27.25;;;;;19.99;63.28;101256.87;146613;590;46012;-73
2022/11/07 15:04:04;;;;;;;;;28.00;25.50;;;;;19.92;64.41;101255.88;146612;589;47010;-73
2022/11/07 15:07:16;;;;;;;;;35.25;30.50;;;;;18.48;64.52;101026.47;146613;593;46016;-73
2022/11/07 15:10:43;;;;;;;;;34.00;28.50;;;;;18.36;65.10;101027.06;146611;648;46010;-73
2022/11/07 15:13:44;;;;;;;;;27.00;25.00;;;;;19.64;65.63;101266.63;146613;585;46016;-71
2022/11/07 15:16:49;;;;;;;;;33.00;31.00;;;;;19.56;65.22;101266.41;146617;571;46014;-72
2022/11/07 15:20:18;;;;;;;;;28.75;24.00;;;;;19.50;65.60;101263.66;146611;585;46016;-73
2022/11/07 15:23:42;;;;;;;;;32.00;30.00;;;;;18.34;65.54;101080.38;146616;571;46021;-74
2022/11/07 15:26:42;;;;;;;;;34.25;29.75;;;;;19.46;66.08;101277.59;146610;642;46014;-73
2022/11/07 15:29:39;;;;;;;;;32.75;29.25;;;;;19.41;66.22;101279.22;146614;608;46014;-73
2022/11/07 15:33:03;;;;;;;;;37.75;31.75;;;;;18.06;66.56;101057.78;146614;594;46017;-74
2022/11/07 15:36:06;;;;;;;;;30.75;26.00;;;;;19.26;66.85;101287.63;146617;601;46010;-74